Time;durP1;ratioP1;P1;durP2;ratioP2;P2;SDS_P1;SDS_P2;PMS_P1;PMS_P2;Temp;Humidity;BMP_temperature;BMP_pressure;BME280_temperature;BME280_humidity;BME280_pressure;Samples;Min_cycle;Max_cycle;Signal;HPM_P1;HPM_P2
2024/02/26 00:04:11;;;;;;;12.32;10.45;;;;;;;1.81;100.00;149122.13;10610868;28;20106;-75
2024/02/26 00:09:13;;;;;;;11.48;9.88;;;;;;;1.52;100.00;149050.34;10630643;28;20527;-75
2024/02/26 00:14:14;;;;;;;11.05;10.00;;;;;;;1.60;100.00;149070.84;10613188;28;20043;-74
2024/02/26 00:19:16;;;;;;;12.68;9.77;;;;;;;1.86;100.00;149136.25;10630213;28;20051;-74
2024/02/26 00:24:18;;;;;;;11.45;10.40;;;;;;;1.49;100.00;149042.63;10629191;28;20069;-76
2024/02/26 00:29:21;;;;;;;10.32;9.43;;;;;;;1.61;100.00;149073.41;10630241;28;20050;-75
2024/02/26 00:34:23;;;;;;;11.27;10.10;;;;;;;1.44;100.00;149031.09;10629952;28;20155;-75
2024/02/26 00:39:25;;;;;;;9.95;8.80;;;;;;;1.28;100.00;148990.06;10630596;28;20084;-76
2024/02/26 00:44:28;;;;;;;10.90;9.80;;;;;;;1.34;100.00;149005.47;10610224;27;20047;-76
2024/02/26 00:49:30;;;;;;;11.05;9.57;;;;;;;1.44;100.00;149031.09;10617075;27;20129;-74
2024/02/26 00:54:32;;;;;;;10.18;8.85;;;;;;;1.28;100.00;148990.06;10635765;27;20044;-74
2024/02/26 00:59:35;;;;;;;10.15;8.90;;;;;;;1.06;100.00;148933.69;10635639;27;20063;-75
2024/02/26 01:04:37;;;;;;;10.02;9.02;;;;;;;1.09;100.00;148942.66;10635683;27;20557;-75
2024/02/26 01:09:39;;;;;;;10.18;9.20;;;;;;;1.14;100.00;148954.19;10635544;27;20132;-74
2024/02/26 01:14:41;;;;;;;11.77;9.82;;;;;;;1.34;100.00;149005.47;10634384;27;20130;-75
2024/02/26 01:19:42;;;;;;;11.27;10.27;;;;;;;1.33;100.00;149002.94;10634032;27;20035;-74
2024/02/26 01:24:44;;;;;;;10.95;9.95;;;;;;;1.22;100.00;148974.72;10634285;27;20035;-74
2024/02/26 01:29:46;;;;;;;10.60;9.10;;;;;;;1.15;100.00;148956.75;10631099;27;20035;-76
2024/02/26 01:34:48;;;;;;;11.35;9.70;;;;;;;1.14;100.00;148954.19;10630525;27;20084;-75
2024/02/26 01:39:50;;;;;;;10.80;9.77;;;;;;;1.20;100.00;148969.63;10630468;27;20051;-75
2024/02/26 01:44:51;;;;;;;11.52;10.32;;;;;;;1.28;100.00;148990.06;10630474;27;20059;-75
2024/02/26 01:49:54;;;;;;;11.60;10.48;;;;;;;1.31;100.00;148996.50;10611460;27;20153;-76
2024/02/26 01:54:56;;;;;;;11.68;10.60;;;;;;;1.20;100.00;148969.63;10629586;27;20050;-76
2024/02/26 01:59:57;;;;;;;11.00;9.93;;;;;;;1.15;100.00;148958.06;10631298;27;20498;-75
2024/02/26 02:05:00;;;;;;;11.02;9.93;;;;;;;0.92;100.00;148900.38;10630685;27;20114;-75
2024/02/26 02:10:02;;;;;;;11.57;10.48;;;;;;;0.97;100.00;148913.25;10630410;27;20031;-75
2024/02/26 02:15:04;;;;;;;13.73;9.52;;;;;;;1.06;100.00;148933.69;10629165;27;20039;-75
2024/02/26 02:20:17;;;;;;;11.93;10.18;;;;;;;1.12;100.00;148950.38;10629385;27;20039;-74
2024/02/26 02:25:20;;;;;;;11.32;10.23;;;;;;;0.75;100.00;148856.81;10628873;27;20100;-75
2024/02/26 02:30:25;;;;;;;10.50;9.15;;;;;;;0.80;100.00;148868.34;10610821;27;20067;-76
2024/02/26 02:35:27;;;;;;;12.25;10.73;;;;;;;1.05;100.00;148931.16;10609650;27;20502;-75
2024/02/26 02:40:28;;;;;;;12.00;10.85;;;;;;;0.98;100.00;148914.50;10629452;27;20039;-76
2024/02/26 02:45:30;;;;;;;11.82;10.50;;;;;;;0.66;100.00;148835.03;10627568;27;20078;-75
2024/02/26 02:50:32;;;;;;;11.05;9.95;;;;;;;0.95;100.00;148908.09;10627194;27;20041;-75
2024/02/26 02:55:34;;;;;;;11.32;10.13;;;;;;;0.77;100.00;148860.69;10609249;27;20043;-76
2024/02/26 03:00:36;;;;;;;11.45;10.32;;;;;;;0.75;100.00;148858.16;10627544;27;20088;-75
2024/02/26 03:05:38;;;;;;;11.50;10.40;;;;;;;0.84;100.00;148879.94;10627255;27;20065;-75
2024/02/26 03:10:39;;;;;;;11.70;10.60;;;;;;;0.52;100.00;148799.19;10628330;27;20043;-76
2024/02/26 03:15:42;;;;;;;12.73;11.18;;;;;;;0.78;100.00;148864.53;10626511;27;20039;-76
2024/02/26 03:20:43;;;;;;;11.13;10.02;;;;;;;0.47;100.00;148787.66;10627053;27;20036;-76
2024/02/26 03:25:47;;;;;;;11.15;10.05;;;;;;;0.77;100.00;148861.97;10627748;27;20053;-75
2024/02/26 03:30:49;;;;;;;11.13;10.02;;;;;;;1.04;100.00;148928.59;10626505;27;20047;-75
2024/02/26 03:35:51;;;;;;;10.82;9.73;;;;;;;0.57;100.00;148810.72;10625983;27;20128;-75
2024/02/26 03:40:53;;;;;;;11.27;10.18;;;;;;;0.61;100.00;148820.97;10625834;27;20457;-75
2024/02/26 03:45:54;;;;;;;10.27;9.27;;;;;;;0.44;100.00;148780.00;10626420;27;20126;-75
2024/02/26 03:50:56;;;;;;;10.02;9.02;;;;;;;0.43;100.00;148777.41;10607634;28;20039;-75
2024/02/26 03:56:02;;;;;;;10.52;9.43;;;;;;;0.39;100.00;148765.91;10626870;28;20047;-75
2024/02/26 04:01:04;;;;;;;9.35;8.35;;;;;;;0.39;100.00;148767.16;10625650;28;20039;-75
2024/02/26 04:06:09;;;;;;;10.98;9.88;;;;;;;0.69;100.00;148842.75;10625633;28;20051;-75
2024/02/26 04:11:11;;;;;;;11.02;9.93;;;;;;;0.85;100.00;148881.19;10627430;28;20043;-76
2024/02/26 04:16:13;;;;;;;11.30;9.70;;;;;;;0.81;100.00;148870.94;10627118;28;20049;-75
2024/02/26 04:21:15;;;;;;;10.63;9.55;;;;;;;0.80;100.00;148868.34;10631153;27;20084;-75
2024/02/26 04:26:16;;;;;;;11.68;10.45;;;;;;;0.47;100.00;148786.41;10633596;27;20054;-75
2024/02/26 04:31:18;;;;;;;13.30;9.90;;;;;;;0.36;100.00;148759.53;10633865;27;20495;-75
2024/02/26 04:36:20;;;;;;;10.63;9.52;;;;;;;0.27;100.00;148735.16;10633734;27;20110;-75
2024/02/26 04:41:22;;;;;;;9.98;8.98;;;;;;;0.21;100.00;148722.34;10634534;27;20050;-76
2024/02/26 04:46:24;;;;;;;11.50;9.93;;;;;;;0.38;100.00;148763.34;10634161;27;20066;-75
2024/02/26 04:51:26;;;;;;;10.80;9.90;;;;;;;0.34;100.00;148753.09;10634294;27;20402;-76
2024/02/26 04:56:28;;;;;;;11.02;9.93;;;;;;;0.46;100.00;148785.13;10633728;27;20096;-75
2024/02/26 05:01:29;;;;;;;9.88;8.85;;;;;;;0.15;100.00;148705.72;10634215;27;20039;-75
2024/02/26 05:06:31;;;;;;;10.73;9.73;;;;;;;0.36;100.00;148758.25;10617406;27;20050;-75
2024/02/26 05:11:35;;;;;;;11.52;9.43;;;;;;;0.47;100.00;148787.66;10633563;27;20057;-73
2024/02/26 05:16:36;;;;;;;9.43;8.52;;;;;;;0.59;100.00;148815.88;10634729;27;20051;-75
2024/02/26 05:21:39;;;;;;;9.75;8.75;;;;;;;0.33;100.00;148750.53;10634425;27;20035;-75
2024/02/26 05:26:41;;;;;;;15.15;8.93;;;;;;;0.35;100.00;148755.66;10635498;27;20051;-75
2024/02/26 05:31:43;;;;;;;10.20;9.10;;;;;;;0.26;100.00;148733.88;10635195;27;20099;-76
2024/02/26 05:36:45;;;;;;;9.95;8.45;;;;;;;0.17;100.00;148710.84;10616651;27;20043;-75
2024/02/26 05:41:46;;;;;;;10.43;9.13;;;;;;;0.66;100.00;148833.78;10615291;27;20067;-76
2024/02/26 05:46:48;;;;;;;14.07;10.25;;;;;;;0.82;100.00;148873.50;10634183;27;20409;-75
2024/02/26 05:51:50;;;;;;;14.10;11.13;;;;;;;0.55;100.00;148805.63;10632662;27;20047;-75
2024/02/26 05:56:52;;;;;;;11.23;9.52;;;;;;;0.43;100.00;148776.16;10631995;27;20046;-76
2024/02/26 06:01:54;;;;;;;10.60;9.57;;;;;;;0.32;100.00;148748.00;10631698;27;20035;-76
2024/02/26 06:06:56;;;;;;;13.10;8.85;;;;;;;0.34;100.00;148754.38;10631178;27;20043;-75
2024/02/26 06:11:57;;;;;;;11.82;9.75;;;;;;;0.76;100.00;148859.41;10631090;27;20510;-75
2024/02/26 06:16:59;;;;;;;10.32;8.23;;;;;;;0.69;100.00;148841.47;10613012;27;20043;-75
2024/02/26 06:22:01;;;;;;;10.02;9.13;;;;;;;0.71;100.00;148846.63;10631610;27;20073;-74
2024/02/26 06:27:03;;;;;;;11.32;9.23;;;;;;;0.74;100.00;148854.28;10632153;27;20122;-75
2024/02/26 06:32:05;;;;;;;10.05;9.15;;;;;;;1.33;100.00;149002.94;10630468;27;20042;-76
2024/02/26 06:37:10;;;;;;;15.25;13.40;;;;;;;2.43;100.00;149279.84;10630441;27;20483;-74
2024/02/26 06:42:12;;;;;;;12.88;11.60;;;;;;;3.02;100.00;149428.72;10612082;27;20088;-75
2024/02/26 06:47:14;;;;;;;11.15;10.15;;;;;;;3.33;100.00;149504.47;10630371;27;20035;-75
2024/02/26 06:52:16;;;;;;;11.98;9.63;;;;;;;4.61;100.00;149826.84;10630013;27;20470;-75
2024/02/26 06:57:19;;;;;;;9.77;8.77;;;;;;;5.77;100.00;150121.28;10611202;27;20062;-76
2024/02/26 07:02:21;;;;;;;9.65;8.77;;;;;;;5.79;95.51;150125.13;10611402;27;20501;-74
2024/02/26 07:07:24;;;;;;;8.82;7.70;;;;;;;5.43;93.46;150033.81;10609932;27;20046;-75
2024/02/26 07:12:26;;;;;;;9.90;8.68;;;;;;;4.91;92.84;149903.94;10628424;27;20110;-75
2024/02/26 07:17:28;;;;;;;12.68;8.50;;;;;;;4.16;95.13;149713.75;10627014;27;20510;-75
2024/02/26 07:22:30;;;;;;;8.35;7.55;;;;;;;4.23;95.98;149733.03;10627683;27;20053;-75
2024/02/26 07:27:32;;;;;;;8.65;7.85;;;;;;;4.12;97.69;149703.47;10627733;27;20063;-77
2024/02/26 07:32:34;;;;;;;10.00;9.00;;;;;;;4.24;97.63;149734.31;10609719;27;20123;-75
2024/02/26 07:37:36;;;;;;;10.50;9.43;;;;;;;4.24;96.30;149734.31;10635191;27;20039;-74
2024/02/26 07:42:39;;;;;;;8.85;7.90;;;;;;;4.16;99.67;149715.09;10619441;27;20106;-75
2024/02/26 07:47:41;;;;;;;12.80;8.65;;;;;;;5.03;99.60;149934.78;10637338;27;20039;-75
2024/02/26 07:52:44;;;;;;;8.85;6.95;;;;;;;5.82;89.80;150132.84;10615565;27;20060;-75
2024/02/26 07:57:46;;;;;;;6.63;6.00;;;;;;;5.81;91.32;150131.56;10614282;28;20130;-74
2024/02/26 08:02:48;;;;;;;6.88;5.50;;;;;;;5.43;95.59;150035.09;10614573;28;20040;-75
2024/02/26 08:07:50;;;;;;;7.10;4.97;;;;;;;5.37;96.09;150019.69;10630568;28;20031;-74
2024/02/26 08:12:51;;;;;;;6.18;5.22;;;;;;;5.60;95.03;150077.53;10613382;28;20047;-74
2024/02/26 08:17:54;;;;;;;5.78;5.13;;;;;;;5.83;94.77;150135.41;10632710;28;20150;-76
2024/02/26 08:22:57;;;;;;;6.30;5.70;;;;;;;6.03;93.59;150186.94;10630169;28;20491;-75
2024/02/26 08:27:59;;;;;;;6.07;5.47;;;;;;;5.76;96.18;150118.72;10629464;28;20042;-75
2024/02/26 08:33:00;;;;;;;6.13;4.93;;;;;;;6.14;93.31;150212.66;10622722;27;20043;-74
2024/02/26 08:38:02;;;;;;;6.38;5.78;;;;;;;6.49;91.48;150302.75;10580000;27;20036;-74
2024/02/26 08:43:04;;;;;;;7.07;5.68;;;;;;;6.57;92.03;150323.34;10610005;27;20047;-76
2024/02/26 08:48:07;;;;;;;6.20;5.50;;;;;;;6.34;94.59;150262.88;10621075;28;20105;-76
2024/02/26 08:53:11;;;;;;;5.78;5.18;;;;;;;6.63;93.01;150336.19;10609267;28;20053;-75
2024/02/26 08:58:14;;;;;;;6.15;5.45;;;;;;;6.70;92.94;150354.25;10621445;28;20046;-74
2024/02/26 09:03:26;;;;;;;6.35;5.60;;;;;;;6.89;91.33;150403.16;10613879;28;20052;-76
2024/02/26 09:08:29;;;;;;;6.13;5.10;;;;;;;6.98;91.47;150425.03;10604805;28;20042;-76
2024/02/26 09:13:34;;;;;;;7.18;5.72;;;;;;;6.81;93.92;150382.53;10599206;28;20524;-75
2024/02/26 09:18:39;;;;;;;6.22;5.63;;;;;;;6.91;93.75;150407.03;10577486;28;20035;-76
2024/02/26 09:23:42;;;;;;;6.43;5.47;;;;;;;7.39;91.08;150528.03;10635624;27;20047;-75
2024/02/26 09:28:44;;;;;;;8.13;5.95;;;;;;;7.38;91.01;150526.75;10621719;27;20042;-75
2024/02/26 09:33:46;;;;;;;9.32;7.22;;;;;;;7.57;90.35;150575.75;10634171;27;20059;-75
2024/02/26 09:38:48;;;;;;;6.40;5.75;;;;;;;7.59;90.95;150580.88;10616187;27;20047;-75
2024/02/26 09:44:04;;;;;;;7.85;6.55;;;;;;;8.00;88.43;150682.66;10599602;27;20134;-75
2024/02/26 09:49:06;;;;;;;6.10;5.50;;;;;;;8.16;88.71;150723.91;10637172;27;20035;-75
2024/02/26 09:54:09;;;;;;;6.47;5.88;;;;;;;8.44;85.25;150793.53;10615296;27;20396;-75
2024/02/26 09:59:16;;;;;;;8.38;5.75;;;;;;;8.45;85.99;150797.38;10572332;28;20039;-75
2024/02/26 10:04:19;;;;;;;6.03;5.13;;;;;;;8.74;83.77;150870.91;10572359;28;20092;-75
2024/02/26 10:09:21;;;;;;;6.00;5.45;;;;;;;8.79;84.89;150883.78;10571569;28;20043;-75
2024/02/26 10:14:24;;;;;;;8.00;6.07;;;;;;;9.18;80.01;150981.81;10590531;28;20040;-74
2024/02/26 10:19:29;;;;;;;5.82;4.95;;;;;;;9.09;81.88;150959.88;10591557;28;20515;-76
2024/02/26 10:24:34;;;;;;;4.82;4.43;;;;;;;9.30;78.50;151011.50;10592650;28;20051;-75
2024/02/26 10:29:37;;;;;;;5.65;5.13;;;;;;;9.70;77.24;151112.13;10599324;27;20095;-74
2024/02/26 10:34:41;;;;;;;5.97;5.38;;;;;;;9.80;77.44;151139.19;10618747;27;20044;-75
2024/02/26 10:39:47;;;;;;;6.30;5.13;;;;;;;10.29;75.23;151261.84;10577985;27;20059;-74
2024/02/26 10:44:48;;;;;;;5.68;5.18;;;;;;;10.35;74.02;151277.34;10587651;28;20077;-75
2024/02/26 10:49:50;;;;;;;5.95;4.88;;;;;;;10.49;72.38;151313.53;10569292;28;20088;-75
2024/02/26 10:54:57;;;;;;;5.40;4.90;;;;;;;10.31;73.00;151267.00;10569097;28;20067;-75
2024/02/26 11:00:04;;;;;;;6.18;5.32;;;;;;;10.27;74.12;151258.00;10587033;28;20329;-75
2024/02/26 11:05:07;;;;;;;5.35;4.75;;;;;;;11.06;71.30;151458.09;10570259;28;20039;-74
2024/02/26 11:10:11;;;;;;;5.43;4.68;;;;;;;11.35;70.08;151531.75;10587788;28;20032;-75
2024/02/26 11:15:13;;;;;;;5.25;4.43;;;;;;;11.23;68.00;151500.75;10587494;28;20043;-74
2024/02/26 11:20:17;;;;;;;5.13;4.63;;;;;;;10.87;70.17;151409.06;10588271;28;20047;-75
2024/02/26 11:25:19;;;;;;;7.75;4.35;;;;;;;10.69;69.40;151362.56;10588659;28;20052;-75
2024/02/26 11:30:22;;;;;;;6.45;5.10;;;;;;;10.19;72.71;151236.00;10569128;28;20229;-76
2024/02/26 11:35:25;;;;;;;5.18;4.68;;;;;;;10.50;71.54;151316.09;10589050;28;20092;-74
2024/02/26 11:40:27;;;;;;;5.80;5.18;;;;;;;10.55;72.24;151327.72;10569920;28;20089;-74
2024/02/26 11:45:48;;;;;;;5.55;4.60;;;;;;;10.49;71.37;151312.19;10588357;28;20443;-74
2024/02/26 11:50:52;;;;;;;5.07;4.57;;;;;;;10.65;70.07;151352.22;10588353;28;20047;-75
2024/02/26 11:56:33;;;;;;;4.82;4.43;;;;;;;11.09;68.82;151465.88;10587130;28;20082;-75
2024/02/26 12:01:40;;;;;;;5.28;4.78;;;;;;;11.00;69.70;151442.63;10457838;28;20537;-75
2024/02/26 12:06:52;;;;;;;6.32;5.20;;;;;;;10.75;69.71;151378.03;10458181;28;20061;-75
2024/02/26 12:11:55;;;;;;;4.97;4.47;;;;;;;10.64;68.68;151350.94;10457392;28;20056;-74
2024/02/26 12:16:58;;;;;;;5.43;4.88;;;;;;;10.52;70.26;151321.22;10458774;28;20122;-75
2024/02/26 12:22:00;;;;;;;5.50;5.00;;;;;;;10.57;70.35;151334.13;10443138;28;20041;-75
2024/02/26 12:27:01;;;;;;;6.35;4.78;;;;;;;10.29;71.13;151261.84;10458997;28;20513;-74
2024/02/26 12:32:05;;;;;;;5.22;4.45;;;;;;;10.25;70.05;151251.53;10551248;28;20202;-75
2024/02/26 12:37:10;;;;;;;4.13;3.72;;;;;;;10.20;70.33;151238.56;10567651;28;20059;-75
2024/02/26 12:42:12;;;;;;;5.57;5.05;;;;;;;10.35;70.20;151277.34;10572375;28;20047;-74
2024/02/26 12:47:16;;;;;;;6.45;5.70;;;;;;;10.35;70.74;151277.34;10593561;28;20067;-74
2024/02/26 12:52:18;;;;;;;5.90;4.72;;;;;;;10.25;70.50;151251.53;10595046;28;20044;-75
2024/02/26 12:57:20;;;;;;;6.57;5.20;;;;;;;10.37;69.89;151281.25;10596570;28;20039;-75
2024/02/26 13:02:22;;;;;;;5.97;5.00;;;;;;;9.95;72.23;151175.31;10597506;28;20051;-75
2024/02/26 13:07:24;;;;;;;5.78;5.28;;;;;;;10.18;71.83;151234.72;10594666;28;20047;-74
2024/02/26 13:12:26;;;;;;;4.72;4.32;;;;;;;10.44;70.21;151299.28;10594355;28;20055;-75
2024/02/26 13:17:32;;;;;;;5.18;4.68;;;;;;;10.46;68.92;151304.47;10594430;28;20457;-75
2024/02/26 13:22:35;;;;;;;4.65;3.95;;;;;;;10.44;68.78;151300.56;10593554;28;20067;-75
2024/02/26 13:27:36;;;;;;;5.65;4.80;;;;;;;10.39;71.76;151287.66;10593077;28;20107;-75
2024/02/26 13:32:40;;;;;;;6.40;5.72;;;;;;;10.46;70.50;151305.75;10593713;28;20069;-75
2024/02/26 13:37:42;;;;;;;4.78;4.38;;;;;;;10.43;69.74;151298.00;10593466;28;20450;-74
2024/02/26 13:42:44;;;;;;;4.95;4.30;;;;;;;10.56;67.76;151330.28;10592042;28;20491;-76
2024/02/26 13:47:46;;;;;;;4.90;4.47;;;;;;;10.39;68.62;151287.66;10591957;28;20055;-75
2024/02/26 13:52:53;;;;;;;5.60;4.47;;;;;;;10.30;69.21;151264.44;10572690;28;20036;-74
2024/02/26 13:57:56;;;;;;;4.68;4.28;;;;;;;10.34;69.19;151276.06;10591595;28;20048;-74
2024/02/26 14:02:59;;;;;;;4.70;4.25;;;;;;;10.33;68.76;151272.19;10593998;28;20062;-75
2024/02/26 14:08:01;;;;;;;5.35;4.03;;;;;;;10.19;69.83;151236.00;10591955;28;20071;-75
2024/02/26 14:13:04;;;;;;;5.05;4.00;;;;;;;10.30;69.46;151264.44;10592856;28;20039;-75
2024/02/26 14:18:07;;;;;;;4.63;4.22;;;;;;;10.49;68.21;151312.19;10573108;28;20044;-74
2024/02/26 14:23:10;;;;;;;5.47;4.25;;;;;;;10.41;68.13;151292.84;10591395;28;20122;-75
2024/02/26 14:28:12;;;;;;;4.50;4.10;;;;;;;10.34;67.94;151274.75;10592467;28;20464;-74
2024/02/26 14:33:23;;;;;;;4.15;3.45;;;;;;;10.18;69.53;151233.41;10590245;28;20051;-75
2024/02/26 14:38:25;;;;;;;4.63;3.63;;;;;;;9.75;71.44;151125.00;10590037;28;20046;-76
2024/02/26 14:43:26;;;;;;;5.88;4.32;;;;;;;10.14;70.70;151223.06;10590074;28;20062;-75
2024/02/26 14:48:30;;;;;;;4.30;3.90;;;;;;;10.29;69.19;151261.84;10588743;28;20040;-75
2024/02/26 14:53:32;;;;;;;5.38;4.28;;;;;;;9.95;71.59;151175.31;10571933;28;20047;-75
2024/02/26 14:58:34;;;;;;;4.18;3.78;;;;;;;10.18;70.28;151234.72;10590328;28;20112;-76
2024/02/26 15:03:36;;;;;;;5.18;3.63;;;;;;;10.01;71.90;151192.13;10588413;28;20042;-76
2024/02/26 15:08:38;;;;;;;4.28;3.88;;;;;;;10.25;69.95;151252.81;10569443;28;20097;-76
2024/02/26 15:13:40;;;;;;;4.00;3.63;;;;;;;10.19;69.61;151237.28;10568184;28;20538;-77
2024/02/26 15:18:42;;;;;;;5.65;4.10;;;;;;;10.04;70.50;151199.84;10587030;28;20043;-76
2024/02/26 15:23:49;;;;;;;3.78;3.42;;;;;;;10.06;70.29;151203.75;10587664;28;20051;-78
2024/02/26 15:29:06;;;;;;;4.35;3.95;;;;;;;9.54;72.79;151073.38;10571845;28;20042;-76
2024/02/26 15:34:07;;;;;;;4.28;3.67;;;;;;;9.66;72.02;151103.09;10588645;28;20047;-75
2024/02/26 15:39:09;;;;;;;5.07;4.32;;;;;;;9.58;72.90;151083.72;10586472;28;20118;-76
2024/02/26 15:44:11;;;;;;;4.88;4.28;;;;;;;9.78;72.26;151132.72;10587153;28;20069;-77
2024/02/26 15:49:13;;;;;;;4.88;4.25;;;;;;;9.86;71.50;151153.38;10588253;28;20032;-76
2024/02/26 15:54:17;;;;;;;4.80;4.38;;;;;;;9.58;73.48;151082.44;10568330;28;20040;-77
2024/02/26 15:59:20;;;;;;;5.07;4.40;;;;;;;9.80;72.65;151137.91;10584586;28;20042;-76
2024/02/26 16:04:22;;;;;;;5.90;5.40;;;;;;;9.57;74.36;151079.84;10585490;28;20115;-76
2024/02/26 16:09:24;;;;;;;6.03;5.03;;;;;;;9.60;73.83;151087.56;10586064;28;20035;-77
2024/02/26 16:14:28;;;;;;;7.53;5.05;;;;;;;9.30;74.90;151012.78;10587314;28;20047;-77
2024/02/26 16:19:30;;;;;;;5.55;4.93;;;;;;;9.17;75.78;150977.94;10576418;28;20495;-77
2024/02/26 16:24:32;;;;;;;5.85;5.30;;;;;;;8.97;77.11;150928.91;10595748;28;20047;-74
2024/02/26 16:29:35;;;;;;;6.05;5.40;;;;;;;9.01;76.76;150939.25;10594319;28;20039;-74
2024/02/26 16:34:37;;;;;;;7.32;5.45;;;;;;;8.96;76.90;150925.06;10594865;28;20047;-75
2024/02/26 16:39:41;;;;;;;6.35;5.75;;;;;;;8.92;76.77;150914.75;10593867;28;20036;-74
2024/02/26 16:44:43;;;;;;;6.32;5.63;;;;;;;8.88;77.25;150904.44;10593217;28;20035;-75
2024/02/26 16:49:45;;;;;;;6.05;5.45;;;;;;;8.68;78.83;150854.16;10593559;28;20116;-75
2024/02/26 16:54:47;;;;;;;6.25;5.45;;;;;;;8.55;80.24;150823.22;10594140;28;20049;-75
2024/02/26 16:59:49;;;;;;;5.65;4.88;;;;;;;8.52;80.92;150814.19;10592127;28;20092;-74
2024/02/26 17:04:51;;;;;;;5.82;5.00;;;;;;;8.56;80.44;150825.78;10573192;28;20050;-75
2024/02/26 17:09:54;;;;;;;6.22;5.03;;;;;;;8.65;79.92;150847.69;10592043;28;20081;-74
2024/02/26 17:14:58;;;;;;;5.68;4.32;;;;;;;8.59;80.09;150833.53;10591041;28;20099;-74
2024/02/26 17:19:59;;;;;;;6.55;5.95;;;;;;;8.69;79.99;150856.72;10572416;28;20047;-75
2024/02/26 17:25:02;;;;;;;6.13;5.53;;;;;;;8.64;80.04;150843.84;10591780;28;20044;-74
2024/02/26 17:30:06;;;;;;;7.78;6.22;;;;;;;8.50;81.14;150810.31;10604851;27;20567;-75
2024/02/26 17:35:10;;;;;;;9.32;8.40;;;;;;;8.50;82.44;150810.31;10629743;27;20039;-75
2024/02/26 17:40:12;;;;;;;10.57;9.57;;;;;;;8.44;82.71;150793.53;10632786;27;20081;-75
2024/02/26 17:45:14;;;;;;;12.15;9.32;;;;;;;8.33;83.13;150767.72;10631907;27;20092;-74
2024/02/26 17:50:16;;;;;;;12.20;9.77;;;;;;;8.40;83.11;150783.22;10614005;27;20035;-75
2024/02/26 17:55:18;;;;;;;14.50;10.23;;;;;;;8.27;83.82;150752.22;10632178;27;20050;-75
2024/02/26 18:00:20;;;;;;;11.32;10.20;;;;;;;8.21;84.37;150736.78;10615247;27;20494;-75
2024/02/26 18:05:22;;;;;;;10.20;8.95;;;;;;;8.21;84.28;150736.78;10632263;27;20047;-76
2024/02/26 18:10:24;;;;;;;12.27;10.82;;;;;;;8.61;83.98;150837.38;10631827;27;20376;-75
2024/02/26 18:15:27;;;;;;;10.45;9.32;;;;;;;8.62;83.10;150838.66;10633088;27;20514;-75
2024/02/26 18:20:33;;;;;;;27.23;17.80;;;;;;;8.44;83.79;150794.81;10632554;27;20070;-75
2024/02/26 18:25:38;;;;;;;29.50;17.63;;;;;;;8.41;84.33;150787.13;10613115;27;20138;-74
2024/02/26 18:30:44;;;;;;;14.27;12.77;;;;;;;8.27;84.77;150752.22;10630338;27;20400;-75
2024/02/26 18:35:46;;;;;;;13.55;10.35;;;;;;;8.09;85.56;150707.13;10612827;27;20047;-75
2024/02/26 18:40:48;;;;;;;14.15;12.55;;;;;;;7.97;85.92;150674.91;10630605;27;20114;-75
2024/02/26 18:45:51;;;;;;;12.68;11.50;;;;;;;7.84;86.60;150644.00;10632433;27;20036;-74
2024/02/26 18:50:53;;;;;;;11.35;9.98;;;;;;;7.78;86.96;150628.53;10632656;27;20039;-75
2024/02/26 18:55:55;;;;;;;11.68;9.30;;;;;;;7.65;87.82;150593.75;10637010;27;20054;-76
2024/02/26 19:00:57;;;;;;;12.55;9.90;;;;;;;7.80;88.39;150633.72;10635672;27;20571;-74
2024/02/26 19:05:58;;;;;;;14.52;9.15;;;;;;;7.77;88.30;150624.69;10634672;27;20051;-75
2024/02/26 19:11:00;;;;;;;10.65;8.75;;;;;;;7.48;89.27;150552.56;10632196;27;20084;-75
2024/02/26 19:16:02;;;;;;;10.90;8.48;;;;;;;7.20;90.78;150480.41;10629413;27;20047;-76
2024/02/26 19:21:04;;;;;;;14.70;8.57;;;;;;;6.95;91.72;150418.63;10630774;27;20035;-75
2024/02/26 19:26:07;;;;;;;16.08;8.98;;;;;;;6.91;92.30;150408.31;10631117;27;20107;-75
2024/02/26 19:31:09;;;;;;;11.85;9.13;;;;;;;6.91;92.78;150407.03;10613592;27;20050;-77
2024/02/26 19:36:11;;;;;;;10.07;8.48;;;;;;;6.75;93.58;150367.09;10632867;27;20051;-77
2024/02/26 19:41:13;;;;;;;15.95;8.85;;;;;;;6.65;93.62;150341.38;10613322;27;20074;-77
2024/02/26 19:46:15;;;;;;;10.65;8.38;;;;;;;6.56;95.05;150319.50;10635078;27;20051;-78
2024/02/26 19:51:18;;;;;;;8.77;7.88;;;;;;;6.42;97.21;150283.41;10633193;27;20410;-78
2024/02/26 19:56:21;;;;;;;12.52;9.02;;;;;;;6.28;97.50;150249.97;10631168;27;20040;-78
2024/02/26 20:01:23;;;;;;;12.50;10.98;;;;;;;6.71;97.03;150356.81;10635838;28;20031;-78
2024/02/26 20:06:25;;;;;;;13.07;10.43;;;;;;;6.91;96.11;150408.31;10613814;28;20117;-78
2024/02/26 20:11:27;;;;;;;11.52;10.27;;;;;;;6.70;96.82;150354.25;10632702;28;20491;-76
2024/02/26 20:16:29;;;;;;;12.60;11.30;;;;;;;6.71;96.76;150356.81;10596740;28;20062;-78
2024/02/26 20:21:31;;;;;;;13.57;10.23;;;;;;;6.33;98.77;150261.59;10633163;28;20043;-77
2024/02/26 20:26:40;;;;;;;13.00;11.00;;;;;;;6.14;100.00;150212.66;10631379;28;20084;-78
2024/02/26 20:31:42;;;;;;;13.45;10.65;;;;;;;6.25;100.00;150242.28;10632111;28;20039;-78
2024/02/26 20:36:43;;;;;;;11.23;9.88;;;;;;;6.07;100.00;150197.25;10633790;28;20039;-78
2024/02/26 20:41:46;;;;;;;14.63;10.70;;;;;;;6.65;100.00;150342.66;10620976;28;20053;-78
2024/02/26 20:46:48;;;;;;;15.70;9.57;;;;;;;6.41;100.00;150280.84;10634267;28;20047;-79
2024/02/26 20:51:49;;;;;;;11.30;9.75;;;;;;;6.24;100.00;150238.38;10596489;28;20042;-77
2024/02/26 20:56:51;;;;;;;12.10;10.85;;;;;;;6.15;100.00;150215.22;10631650;28;20049;-78
2024/02/26 21:01:53;;;;;;;12.32;10.68;;;;;;;6.02;100.00;150184.38;10636706;27;20035;-78
2024/02/26 21:06:55;;;;;;;13.70;10.43;;;;;;;6.03;100.00;150185.66;10620753;27;20473;-77
2024/02/26 21:11:57;;;;;;;10.40;9.32;;;;;;;6.18;100.00;150222.97;10637309;27;20467;-77
2024/02/26 21:16:59;;;;;;;12.18;10.82;;;;;;;6.79;100.00;150377.41;10637142;27;20452;-77
2024/02/26 21:22:01;;;;;;;13.10;10.00;;;;;;;6.90;100.00;150404.44;10637593;27;20047;-76
2024/02/26 21:27:03;;;;;;;17.35;11.50;;;;;;;6.41;100.00;150280.84;10635423;27;20432;-75
2024/02/26 21:32:05;;;;;;;11.63;10.43;;;;;;;6.16;100.00;150217.81;10615526;27;20107;-77
2024/02/26 21:37:08;;;;;;;12.40;9.60;;;;;;;6.14;100.00;150213.94;10637966;27;20047;-77
2024/02/26 21:42:09;;;;;;;10.35;9.25;;;;;;;6.23;100.00;150235.81;10635257;27;20035;-77
2024/02/26 21:47:11;;;;;;;11.13;9.90;;;;;;;6.45;100.00;150291.16;10635767;27;20055;-76
2024/02/26 21:52:17;;;;;;;12.57;10.13;;;;;;;6.74;100.00;150365.81;10635897;27;20062;-77
2024/02/26 21:57:18;;;;;;;12.73;10.77;;;;;;;6.79;100.00;150377.41;10617195;27;20103;-78
2024/02/26 22:02:20;;;;;;;11.68;10.57;;;;;;;6.44;100.00;150288.59;10633583;27;20043;-78
2024/02/26 22:07:22;;;;;;;11.23;9.63;;;;;;;6.24;100.00;150238.38;10633002;27;20432;-77
2024/02/26 22:12:28;;;;;;;10.65;9.52;;;;;;;5.97;100.00;150171.47;10629950;27;20546;-78
2024/02/26 22:17:30;;;;;;;12.30;9.75;;;;;;;5.90;100.00;150153.44;10631478;27;20049;-76
2024/02/26 22:22:32;;;;;;;12.57;10.18;;;;;;;5.88;100.00;150147.00;10632473;27;20540;-78
2024/02/26 22:27:34;;;;;;;12.27;9.82;;;;;;;6.00;100.00;150177.94;10634657;27;20057;-77
2024/02/26 22:32:36;;;;;;;11.55;9.05;;;;;;;6.09;100.00;150201.09;10631580;27;20088;-77
2024/02/26 22:37:38;;;;;;;14.70;11.30;;;;;;;6.12;100.00;150207.53;10630563;27;20049;-78
2024/02/26 22:42:40;;;;;;;13.85;10.57;;;;;;;6.06;100.00;150194.66;10632035;27;20053;-76
2024/02/26 22:47:42;;;;;;;11.88;10.02;;;;;;;6.04;100.00;150188.22;10611608;27;20051;-77
2024/02/26 22:52:45;;;;;;;11.88;10.48;;;;;;;6.10;100.00;150203.63;10627325;27;20449;-77
2024/02/26 22:57:47;;;;;;;17.20;10.38;;;;;;;6.30;100.00;150255.13;10629554;27;20051;-77
2024/02/26 23:02:48;;;;;;;11.15;9.57;;;;;;;6.49;100.00;150301.47;10628220;27;20036;-78
2024/02/26 23:07:51;;;;;;;14.23;9.85;;;;;;;6.13;100.00;150211.38;10627957;27;20043;-77